sensor_id;sensor_type;location;lat;lon;timestamp;temperature;humidity
11617;DHT22;5864;52.998;9.068;2023-04-01T00:01:27;9.90;99.90
11617;DHT22;5864;52.998;9.068;2023-04-01T00:04:12;9.90;99.90
11617;DHT22;5864;52.998;9.068;2023-04-01T00:06:58;9.90;99.90
11617;DHT22;5864;52.998;9.068;2023-04-01T00:09:44;9.80;99.90
11617;DHT22;5864;52.998;9.068;2023-04-01T00:12:30;9.80;99.90
11617;DHT22;5864;52.998;9.068;2023-04-01T00:15:15;9.90;99.90
11617;DHT22;5864;52.998;9.068;2023-04-01T00:18:02;9.90;99.90
11617;DHT22;5864;52.998;9.068;2023-04-01T00:20:50;9.90;99.90
11617;DHT22;5864;52.998;9.068;2023-04-01T00:23:37;9.80;99.90
11617;DHT22;5864;52.998;9.068;2023-04-01T00:26:23;9.90;99.90
11617;DHT22;5864;52.998;9.068;2023-04-01T00:29:09;9.90;99.90
11617;DHT22;5864;52.998;9.068;2023-04-01T00:31:55;9.80;99.90
11617;DHT22;5864;52.998;9.068;2023-04-01T00:34:42;9.80;99.90
11617;DHT22;5864;52.998;9.068;2023-04-01T00:37:28;9.90;99.90
11617;DHT22;5864;52.998;9.068;2023-04-01T00:40:25;9.80;99.90
11617;DHT22;5864;52.998;9.068;2023-04-01T00:43:12;9.90;99.90
11617;DHT22;5864;52.998;9.068;2023-04-01T00:45:58;9.80;99.90
11617;DHT22;5864;52.998;9.068;2023-04-01T00:48:48;9.80;99.90
11617;DHT22;5864;52.998;9.068;2023-04-01T00:51:36;9.80;99.90
11617;DHT22;5864;52.998;9.068;2023-04-01T00:54:25;9.90;99.90
11617;DHT22;5864;52.998;9.068;2023-04-01T00:57:13;9.80;99.90
11617;DHT22;5864;52.998;9.068;2023-04-01T01:00:03;10.60;99.90
11617;DHT22;5864;52.998;9.068;2023-04-01T01:02:50;9.90;99.90
11617;DHT22;5864;52.998;9.068;2023-04-01T01:05:52;9.90;99.90
11617;DHT22;5864;52.998;9.068;2023-04-01T01:08:53;9.80;99.90
11617;DHT22;5864;52.998;9.068;2023-04-01T01:11:44;9.80;99.90
11617;DHT22;5864;52.998;9.068;2023-04-01T01:14:40;9.90;99.90
11617;DHT22;5864;52.998;9.068;2023-04-01T01:17:37;9.80;99.90
11617;DHT22;5864;52.998;9.068;2023-04-01T01:24:12;9.80;99.90
11617;DHT22;5864;52.998;9.068;2023-04-01T01:27:02;9.80;99.90
11617;DHT22;5864;52.998;9.068;2023-04-01T01:30:16;9.80;99.90
11617;DHT22;5864;52.998;9.068;2023-04-01T01:33:24;9.90;99.90
11617;DHT22;5864;52.998;9.068;2023-04-01T01:36:16;9.80;99.90
11617;DHT22;5864;52.998;9.068;2023-04-01T01:39:04;9.80;99.90
11617;DHT22;5864;52.998;9.068;2023-04-01T01:41:51;9.80;99.90
11617;DHT22;5864;52.998;9.068;2023-04-01T01:44:38;9.80;99.90
11617;DHT22;5864;52.998;9.068;2023-04-01T01:47:25;9.70;99.90
11617;DHT22;5864;52.998;9.068;2023-04-01T01:50:12;9.70;99.90
11617;DHT22;5864;52.998;9.068;2023-04-01T01:53:05;10.70;99.90
11617;DHT22;5864;52.998;9.068;2023-04-01T01:55:51;9.80;99.90
11617;DHT22;5864;52.998;9.068;2023-04-01T01:58:39;9.80;99.90
11617;DHT22;5864;52.998;9.068;2023-04-01T02:01:30;9.80;99.90
11617;DHT22;5864;52.998;9.068;2023-04-01T02:04:18;9.80;99.90
11617;DHT22;5864;52.998;9.068;2023-04-01T02:07:08;9.80;99.90
11617;DHT22;5864;52.998;9.068;2023-04-01T02:09:57;9.80;99.90
11617;DHT22;5864;52.998;9.068;2023-04-01T02:12:44;10.20;99.90
11617;DHT22;5864;52.998;9.068;2023-04-01T02:15:33;9.80;99.90
11617;DHT22;5864;52.998;9.068;2023-04-01T02:18:22;9.80;99.90
11617;DHT22;5864;52.998;9.068;2023-04-01T02:21:09;9.80;99.90
11617;DHT22;5864;52.998;9.068;2023-04-01T02:23:56;9.70;99.90
11617;DHT22;5864;52.998;9.068;2023-04-01T02:26:45;9.80;99.90
11617;DHT22;5864;52.998;9.068;2023-04-01T02:29:31;9.70;99.90
11617;DHT22;5864;52.998;9.068;2023-04-01T02:32:17;9.70;99.90
11617;DHT22;5864;52.998;9.068;2023-04-01T02:35:05;9.70;99.90
11617;DHT22;5864;52.998;9.068;2023-04-01T02:37:55;9.70;99.90
11617;DHT22;5864;52.998;9.068;2023-04-01T02:40:44;10.50;99.90
11617;DHT22;5864;52.998;9.068;2023-04-01T02:43:31;9.70;99.90
11617;DHT22;5864;52.998;9.068;2023-04-01T02:46:17;10.40;99.90
11617;DHT22;5864;52.998;9.068;2023-04-01T02:49:03;9.80;99.90
11617;DHT22;5864;52.998;9.068;2023-04-01T02:51:49;9.70;99.90
11617;DHT22;5864;52.998;9.068;2023-04-01T02:54:36;9.70;99.90
11617;DHT22;5864;52.998;9.068;2023-04-01T02:57:22;9.70;99.90
11617;DHT22;5864;52.998;9.068;2023-04-01T03:00:11;9.70;99.90
11617;DHT22;5864;52.998;9.068;2023-04-01T03:02:56;9.70;99.90
11617;DHT22;5864;52.998;9.068;2023-04-01T03:05:42;9.70;99.90
11617;DHT22;5864;52.998;9.068;2023-04-01T03:08:28;9.70;99.90
11617;DHT22;5864;52.998;9.068;2023-04-01T03:11:13;11.60;99.90
11617;DHT22;5864;52.998;9.068;2023-04-01T03:13:59;9.70;99.90
11617;DHT22;5864;52.998;9.068;2023-04-01T03:16:46;11.80;99.90
11617;DHT22;5864;52.998;9.068;2023-04-01T03:19:32;10.00;99.90
11617;DHT22;5864;52.998;9.068;2023-04-01T03:22:17;10.40;99.90
11617;DHT22;5864;52.998;9.068;2023-04-01T03:25:06;10.70;99.90
11617;DHT22;5864;52.998;9.068;2023-04-01T03:27:52;9.60;99.90
11617;DHT22;5864;52.998;9.068;2023-04-01T03:30:38;9.70;99.90
11617;DHT22;5864;52.998;9.068;2023-04-01T03:33:25;11.20;99.90
11617;DHT22;5864;52.998;9.068;2023-04-01T03:36:11;9.70;99.90
11617;DHT22;5864;52.998;9.068;2023-04-01T03:38:57;9.60;99.90
11617;DHT22;5864;52.998;9.068;2023-04-01T03:41:42;9.60;99.90
11617;DHT22;5864;52.998;9.068;2023-04-01T03:44:30;10.90;99.90
11617;DHT22;5864;52.998;9.068;2023-04-01T03:47:16;9.60;99.90
11617;DHT22;5864;52.998;9.068;2023-04-01T03:50:03;9.60;99.90
11617;DHT22;5864;52.998;9.068;2023-04-01T03:52:49;9.60;99.90
11617;DHT22;5864;52.998;9.068;2023-04-01T03:55:35;9.70;99.90
11617;DHT22;5864;52.998;9.068;2023-04-01T03:58:21;9.60;99.90
11617;DHT22;5864;52.998;9.068;2023-04-01T04:01:14;9.50;99.90
11617;DHT22;5864;52.998;9.068;2023-04-01T04:04:00;10.20;99.90
11617;DHT22;5864;52.998;9.068;2023-04-01T04:06:46;9.60;99.90
11617;DHT22;5864;52.998;9.068;2023-04-01T04:09:32;9.60;99.90
11617;DHT22;5864;52.998;9.068;2023-04-01T04:12:18;9.60;99.90
11617;DHT22;5864;52.998;9.068;2023-04-01T04:15:05;9.60;99.90
11617;DHT22;5864;52.998;9.068;2023-04-01T04:17:51;9.60;99.90
11617;DHT22;5864;52.998;9.068;2023-04-01T04:20:37;9.60;99.90
11617;DHT22;5864;52.998;9.068;2023-04-01T04:23:31;9.60;99.90
11617;DHT22;5864;52.998;9.068;2023-04-01T04:26:17;9.60;99.90
11617;DHT22;5864;52.998;9.068;2023-04-01T04:29:03;9.80;99.90
11617;DHT22;5864;52.998;9.068;2023-04-01T04:31:48;9.70;99.90
11617;DHT22;5864;52.998;9.068;2023-04-01T04:34:34;9.60;99.90
11617;DHT22;5864;52.998;9.068;2023-04-01T04:37:20;9.60;99.90
11617;DHT22;5864;52.998;9.068;2023-04-01T04:40:08;9.60;99.90
11617;DHT22;5864;52.998;9.068;2023-04-01T04:42:54;9.60;99.90
11617;DHT22;5864;52.998;9.068;2023-04-01T04:45:40;9.60;99.90
11617;DHT22;5864;52.998;9.068;2023-04-01T04:48:25;9.60;99.90
11617;DHT22;5864;52.998;9.068;2023-04-01T04:51:13;9.90;99.90
11617;DHT22;5864;52.998;9.068;2023-04-01T04:54:00;9.60;99.90
11617;DHT22;5864;52.998;9.068;2023-04-01T04:56:46;9.50;99.90
11617;DHT22;5864;52.998;9.068;2023-04-01T04:59:32;9.60;99.90
11617;DHT22;5864;52.998;9.068;2023-04-01T05:02:17;9.60;99.90
11617;DHT22;5864;52.998;9.068;2023-04-01T05:05:04;9.50;99.90
11617;DHT22;5864;52.998;9.068;2023-04-01T05:07:50;9.50;99.90
11617;DHT22;5864;52.998;9.068;2023-04-01T05:10:35;9.50;99.90
11617;DHT22;5864;52.998;9.068;2023-04-01T05:13:22;9.40;99.90
11617;DHT22;5864;52.998;9.068;2023-04-01T05:16:09;9.70;99.90
11617;DHT22;5864;52.998;9.068;2023-04-01T05:18:55;9.50;99.90
11617;DHT22;5864;52.998;9.068;2023-04-01T05:21:40;9.50;99.90
11617;DHT22;5864;52.998;9.068;2023-04-01T05:24:26;10.10;99.90
11617;DHT22;5864;52.998;9.068;2023-04-01T05:27:12;9.40;99.90
11617;DHT22;5864;52.998;9.068;2023-04-01T05:29:59;9.70;99.90
11617;DHT22;5864;52.998;9.068;2023-04-01T05:32:45;9.30;99.90
11617;DHT22;5864;52.998;9.068;2023-04-01T05:35:30;9.30;99.90
11617;DHT22;5864;52.998;9.068;2023-04-01T05:38:17;12.30;99.90
11617;DHT22;5864;52.998;9.068;2023-04-01T05:41:03;9.30;99.90
11617;DHT22;5864;52.998;9.068;2023-04-01T05:43:48;9.30;99.90
11617;DHT22;5864;52.998;9.068;2023-04-01T05:46:35;9.30;99.90
11617;DHT22;5864;52.998;9.068;2023-04-01T05:49:21;9.30;99.90
11617;DHT22;5864;52.998;9.068;2023-04-01T05:52:08;9.30;99.90
11617;DHT22;5864;52.998;9.068;2023-04-01T05:54:54;9.40;99.90
11617;DHT22;5864;52.998;9.068;2023-04-01T05:57:40;9.40;99.90
11617;DHT22;5864;52.998;9.068;2023-04-01T06:00:26;9.40;99.90
11617;DHT22;5864;52.998;9.068;2023-04-01T06:03:13;9.40;99.90
11617;DHT22;5864;52.998;9.068;2023-04-01T06:06:00;10.90;99.90
11617;DHT22;5864;52.998;9.068;2023-04-01T06:08:45;9.30;99.90
11617;DHT22;5864;52.998;9.068;2023-04-01T06:11:37;9.70;99.90
11617;DHT22;5864;52.998;9.068;2023-04-01T06:14:32;9.30;99.90
11617;DHT22;5864;52.998;9.068;2023-04-01T06:17:41;9.30;99.90
11617;DHT22;5864;52.998;9.068;2023-04-01T06:20:37;9.40;99.90
11617;DHT22;5864;52.998;9.068;2023-04-01T06:23:39;9.40;99.90
11617;DHT22;5864;52.998;9.068;2023-04-01T06:26:34;9.40;99.90
11617;DHT22;5864;52.998;9.068;2023-04-01T06:29:47;9.40;99.90
11617;DHT22;5864;52.998;9.068;2023-04-01T06:32:56;9.50;99.90
11617;DHT22;5864;52.998;9.068;2023-04-01T06:36:07;9.50;99.90
11617;DHT22;5864;52.998;9.068;2023-04-01T06:39:18;9.50;99.90
11617;DHT22;5864;52.998;9.068;2023-04-01T06:42:33;9.60;99.90
11617;DHT22;5864;52.998;9.068;2023-04-01T06:45:28;9.50;99.90
11617;DHT22;5864;52.998;9.068;2023-04-01T06:48:27;9.50;99.90
11617;DHT22;5864;52.998;9.068;2023-04-01T06:51:24;11.00;99.90
11617;DHT22;5864;52.998;9.068;2023-04-01T06:54:16;9.50;99.90
11617;DHT22;5864;52.998;9.068;2023-04-01T06:57:08;11.40;99.90
11617;DHT22;5864;52.998;9.068;2023-04-01T07:00:00;9.70;99.90
11617;DHT22;5864;52.998;9.068;2023-04-01T07:02:50;9.70;99.90
11617;DHT22;5864;52.998;9.068;2023-04-01T07:05:42;9.70;99.90
11617;DHT22;5864;52.998;9.068;2023-04-01T07:08:31;11.40;99.90
11617;DHT22;5864;52.998;9.068;2023-04-01T07:11:24;9.70;99.90
11617;DHT22;5864;52.998;9.068;2023-04-01T07:14:16;9.70;99.90
11617;DHT22;5864;52.998;9.068;2023-04-01T07:17:07;9.90;99.90
11617;DHT22;5864;52.998;9.068;2023-04-01T07:19:58;9.80;99.90
11617;DHT22;5864;52.998;9.068;2023-04-01T07:22:49;10.00;99.90
11617;DHT22;5864;52.998;9.068;2023-04-01T07:25:41;9.80;99.90
11617;DHT22;5864;52.998;9.068;2023-04-01T07:28:31;11.80;99.90
11617;DHT22;5864;52.998;9.068;2023-04-01T07:31:28;9.80;99.90
11617;DHT22;5864;52.998;9.068;2023-04-01T07:34:21;11.00;99.90
11617;DHT22;5864;52.998;9.068;2023-04-01T07:37:12;9.90;99.90
11617;DHT22;5864;52.998;9.068;2023-04-01T07:40:09;11.40;99.90
11617;DHT22;5864;52.998;9.068;2023-04-01T07:43:25;9.90;99.90
11617;DHT22;5864;52.998;9.068;2023-04-01T07:46:29;10.80;99.90
11617;DHT22;5864;52.998;9.068;2023-04-01T07:49:25;9.90;99.90
11617;DHT22;5864;52.998;9.068;2023-04-01T07:52:16;10.00;99.90
11617;DHT22;5864;52.998;9.068;2023-04-01T07:55:09;10.00;99.90
11617;DHT22;5864;52.998;9.068;2023-04-01T07:58:00;11.30;99.90
11617;DHT22;5864;52.998;9.068;2023-04-01T08:00:56;10.10;99.90
11617;DHT22;5864;52.998;9.068;2023-04-01T08:03:55;12.00;99.90
11617;DHT22;5864;52.998;9.068;2023-04-01T08:06:52;10.30;99.90
11617;DHT22;5864;52.998;9.068;2023-04-01T08:09:43;10.20;99.90
11617;DHT22;5864;52.998;9.068;2023-04-01T08:12:37;10.30;99.90
11617;DHT22;5864;52.998;9.068;2023-04-01T08:15:28;10.40;99.90
11617;DHT22;5864;52.998;9.068;2023-04-01T08:18:27;10.30;99.90
11617;DHT22;5864;52.998;9.068;2023-04-01T08:21:21;10.30;99.90
11617;DHT22;5864;52.998;9.068;2023-04-01T08:24:13;10.30;99.90
11617;DHT22;5864;52.998;9.068;2023-04-01T08:27:09;10.30;99.90
11617;DHT22;5864;52.998;9.068;2023-04-01T08:29:59;11.80;99.90
11617;DHT22;5864;52.998;9.068;2023-04-01T08:32:50;10.50;99.90
11617;DHT22;5864;52.998;9.068;2023-04-01T08:35:40;10.50;99.90
11617;DHT22;5864;52.998;9.068;2023-04-01T08:38:32;10.50;99.90
11617;DHT22;5864;52.998;9.068;2023-04-01T08:41:48;10.60;99.90
11617;DHT22;5864;52.998;9.068;2023-04-01T08:45:03;10.60;99.90
11617;DHT22;5864;52.998;9.068;2023-04-01T08:51:18;10.90;99.90
11617;DHT22;5864;52.998;9.068;2023-04-01T08:54:33;10.90;99.90
11617;DHT22;5864;52.998;9.068;2023-04-01T08:57:34;11.10;99.90
11617;DHT22;5864;52.998;9.068;2023-04-01T09:00:29;11.10;99.90
11617;DHT22;5864;52.998;9.068;2023-04-01T09:03:36;11.10;99.90
11617;DHT22;5864;52.998;9.068;2023-04-01T09:06:33;11.20;99.90
11617;DHT22;5864;52.998;9.068;2023-04-01T09:12:59;11.20;99.90
11617;DHT22;5864;52.998;9.068;2023-04-01T09:16:11;11.50;99.90
11617;DHT22;5864;52.998;9.068;2023-04-01T09:19:27;11.70;99.90
11617;DHT22;5864;52.998;9.068;2023-04-01T09:22:26;11.80;99.90
11617;DHT22;5864;52.998;9.068;2023-04-01T09:25:44;11.60;99.90
11617;DHT22;5864;52.998;9.068;2023-04-01T09:28:38;11.50;99.90
11617;DHT22;5864;52.998;9.068;2023-04-01T09:31:59;11.50;99.90
11617;DHT22;5864;52.998;9.068;2023-04-01T09:34:53;11.50;99.90
11617;DHT22;5864;52.998;9.068;2023-04-01T09:38:02;11.70;99.90
11617;DHT22;5864;52.998;9.068;2023-04-01T09:40:56;12.00;99.90
11617;DHT22;5864;52.998;9.068;2023-04-01T09:43:58;12.40;99.90
11617;DHT22;5864;52.998;9.068;2023-04-01T09:47:03;12.70;99.90
11617;DHT22;5864;52.998;9.068;2023-04-01T09:50:20;13.00;99.90
11617;DHT22;5864;52.998;9.068;2023-04-01T09:53:24;12.90;99.90
11617;DHT22;5864;52.998;9.068;2023-04-01T09:56:47;13.00;99.90
11617;DHT22;5864;52.998;9.068;2023-04-01T09:59:56;13.10;99.90
11617;DHT22;5864;52.998;9.068;2023-04-01T10:03:20;12.90;99.90
11617;DHT22;5864;52.998;9.068;2023-04-01T10:10:20;12.90;99.90
11617;DHT22;5864;52.998;9.068;2023-04-01T10:13:46;13.00;99.90
11617;DHT22;5864;52.998;9.068;2023-04-01T10:17:08;13.00;99.90
11617;DHT22;5864;52.998;9.068;2023-04-01T10:20:13;12.70;99.90
11617;DHT22;5864;52.998;9.068;2023-04-01T10:26:28;12.70;99.90
11617;DHT22;5864;52.998;9.068;2023-04-01T10:29:42;12.60;99.90
11617;DHT22;5864;52.998;9.068;2023-04-01T10:33:12;12.40;99.90
11617;DHT22;5864;52.998;9.068;2023-04-01T10:36:21;12.10;99.90
11617;DHT22;5864;52.998;9.068;2023-04-01T10:39:38;11.10;99.90
11617;DHT22;5864;52.998;9.068;2023-04-01T10:43:25;10.80;99.90
11617;DHT22;5864;52.998;9.068;2023-04-01T10:46:47;10.70;99.90
11617;DHT22;5864;52.998;9.068;2023-04-01T10:49:54;10.70;99.90
11617;DHT22;5864;52.998;9.068;2023-04-01T10:56:34;10.30;99.90
11617;DHT22;5864;52.998;9.068;2023-04-01T11:06:31;11.60;99.90
11617;DHT22;5864;52.998;9.068;2023-04-01T11:10:00;9.70;99.90
11617;DHT22;5864;52.998;9.068;2023-04-01T11:16:38;9.60;99.90
11617;DHT22;5864;52.998;9.068;2023-04-01T11:19:51;9.50;99.90
11617;DHT22;5864;52.998;9.068;2023-04-01T11:22:51;9.50;99.90
11617;DHT22;5864;52.998;9.068;2023-04-01T11:26:02;9.60;99.90
11617;DHT22;5864;52.998;9.068;2023-04-01T11:29:11;10.50;99.90
11617;DHT22;5864;52.998;9.068;2023-04-01T11:32:16;9.60;99.90
11617;DHT22;5864;52.998;9.068;2023-04-01T11:35:27;9.70;99.90
11617;DHT22;5864;52.998;9.068;2023-04-01T11:38:26;9.40;99.90
11617;DHT22;5864;52.998;9.068;2023-04-01T11:41:23;10.70;99.90
11617;DHT22;5864;52.998;9.068;2023-04-01T11:44:16;9.50;99.90
11617;DHT22;5864;52.998;9.068;2023-04-01T11:47:24;10.00;99.90
11617;DHT22;5864;52.998;9.068;2023-04-01T11:50:21;9.40;99.90
11617;DHT22;5864;52.998;9.068;2023-04-01T11:53:25;10.90;99.90
11617;DHT22;5864;52.998;9.068;2023-04-01T11:56:27;9.50;99.90
11617;DHT22;5864;52.998;9.068;2023-04-01T11:59:46;9.20;99.90
11617;DHT22;5864;52.998;9.068;2023-04-01T12:02:42;9.10;99.90
11617;DHT22;5864;52.998;9.068;2023-04-01T12:05:43;9.10;99.90
11617;DHT22;5864;52.998;9.068;2023-04-01T12:08:39;9.10;99.90
11617;DHT22;5864;52.998;9.068;2023-04-01T12:11:34;11.30;99.90
11617;DHT22;5864;52.998;9.068;2023-04-01T12:14:30;9.10;99.90
11617;DHT22;5864;52.998;9.068;2023-04-01T12:17:28;9.10;99.90
11617;DHT22;5864;52.998;9.068;2023-04-01T12:20:38;9.50;99.90
11617;DHT22;5864;52.998;9.068;2023-04-01T12:27:02;9.10;99.90
11617;DHT22;5864;52.998;9.068;2023-04-01T12:30:09;9.20;99.90
11617;DHT22;5864;52.998;9.068;2023-04-01T12:33:10;9.00;99.90
11617;DHT22;5864;52.998;9.068;2023-04-01T12:36:09;9.00;99.90
11617;DHT22;5864;52.998;9.068;2023-04-01T12:39:29;8.90;99.90
11617;DHT22;5864;52.998;9.068;2023-04-01T12:42:35;9.20;99.90
11617;DHT22;5864;52.998;9.068;2023-04-01T12:45:30;8.90;99.90
11617;DHT22;5864;52.998;9.068;2023-04-01T12:48:41;9.00;99.90
11617;DHT22;5864;52.998;9.068;2023-04-01T12:51:55;8.80;99.90
11617;DHT22;5864;52.998;9.068;2023-04-01T12:58:38;8.80;99.90
11617;DHT22;5864;52.998;9.068;2023-04-01T13:01:51;8.70;99.90
11617;DHT22;5864;52.998;9.068;2023-04-01T13:05:01;8.80;99.90
11617;DHT22;5864;52.998;9.068;2023-04-01T13:08:06;9.10;99.90
11617;DHT22;5864;52.998;9.068;2023-04-01T13:11:07;10.60;99.90
11617;DHT22;5864;52.998;9.068;2023-04-01T13:14:19;9.00;99.90
11617;DHT22;5864;52.998;9.068;2023-04-01T13:20:02;8.70;99.90
11617;DHT22;5864;52.998;9.068;2023-04-01T13:22:58;9.50;99.90
11617;DHT22;5864;52.998;9.068;2023-04-01T13:25:49;9.00;99.90
11617;DHT22;5864;52.998;9.068;2023-04-01T13:28:39;8.70;99.90
11617;DHT22;5864;52.998;9.068;2023-04-01T13:31:55;8.70;99.90
11617;DHT22;5864;52.998;9.068;2023-04-01T13:34:55;8.60;99.90
11617;DHT22;5864;52.998;9.068;2023-04-01T13:37:54;10.90;99.90
11617;DHT22;5864;52.998;9.068;2023-04-01T13:40:52;8.40;99.90
11617;DHT22;5864;52.998;9.068;2023-04-01T13:43:43;8.40;99.90
11617;DHT22;5864;52.998;9.068;2023-04-01T13:50:01;8.40;99.90
11617;DHT22;5864;52.998;9.068;2023-04-01T13:53:17;8.40;99.90
11617;DHT22;5864;52.998;9.068;2023-04-01T13:56:16;8.40;99.90
11617;DHT22;5864;52.998;9.068;2023-04-01T13:59:29;8.30;99.90
11617;DHT22;5864;52.998;9.068;2023-04-01T14:02:35;9.00;99.90
11617;DHT22;5864;52.998;9.068;2023-04-01T14:05:47;8.20;99.90
11617;DHT22;5864;52.998;9.068;2023-04-01T14:09:01;8.10;99.90
11617;DHT22;5864;52.998;9.068;2023-04-01T14:11:56;8.10;99.90
11617;DHT22;5864;52.998;9.068;2023-04-01T14:14:53;8.10;99.90
11617;DHT22;5864;52.998;9.068;2023-04-01T14:17:50;8.00;99.90
11617;DHT22;5864;52.998;9.068;2023-04-01T14:20:41;8.00;99.90
11617;DHT22;5864;52.998;9.068;2023-04-01T14:23:47;8.00;99.90
11617;DHT22;5864;52.998;9.068;2023-04-01T14:26:56;7.90;99.90
11617;DHT22;5864;52.998;9.068;2023-04-01T14:29:56;8.00;99.90
11617;DHT22;5864;52.998;9.068;2023-04-01T14:32:51;7.90;99.90
11617;DHT22;5864;52.998;9.068;2023-04-01T14:35:39;8.00;99.90
11617;DHT22;5864;52.998;9.068;2023-04-01T14:38:39;8.80;99.90
11617;DHT22;5864;52.998;9.068;2023-04-01T14:41:37;7.90;99.90
11617;DHT22;5864;52.998;9.068;2023-04-01T14:44:42;7.90;99.90
11617;DHT22;5864;52.998;9.068;2023-04-01T14:50:29;7.70;99.90
11617;DHT22;5864;52.998;9.068;2023-04-01T14:53:26;7.80;99.90
11617;DHT22;5864;52.998;9.068;2023-04-01T15:01:53;7.80;99.90
11617;DHT22;5864;52.998;9.068;2023-04-01T15:04:54;7.70;99.90
11617;DHT22;5864;52.998;9.068;2023-04-01T15:08:03;7.60;99.90
11617;DHT22;5864;52.998;9.068;2023-04-01T15:11:10;7.50;99.90
11617;DHT22;5864;52.998;9.068;2023-04-01T15:14:25;7.50;99.90
11617;DHT22;5864;52.998;9.068;2023-04-01T15:17:31;7.40;99.90
11617;DHT22;5864;52.998;9.068;2023-04-01T15:24:00;7.30;99.90
11617;DHT22;5864;52.998;9.068;2023-04-01T15:27:11;8.60;99.90
11617;DHT22;5864;52.998;9.068;2023-04-01T15:33:28;7.20;99.90
11617;DHT22;5864;52.998;9.068;2023-04-01T15:36:28;8.90;99.90
11617;DHT22;5864;52.998;9.068;2023-04-01T15:39:20;8.60;99.90
11617;DHT22;5864;52.998;9.068;2023-04-01T15:42:22;7.20;99.90
11617;DHT22;5864;52.998;9.068;2023-04-01T15:45:17;9.10;99.90
11617;DHT22;5864;52.998;9.068;2023-04-01T15:48:23;9.30;99.90
11617;DHT22;5864;52.998;9.068;2023-04-01T15:51:23;7.10;99.90
11617;DHT22;5864;52.998;9.068;2023-04-01T15:54:27;7.10;99.90
11617;DHT22;5864;52.998;9.068;2023-04-01T15:57:23;7.10;99.90
11617;DHT22;5864;52.998;9.068;2023-04-01T16:00:16;7.10;99.90
11617;DHT22;5864;52.998;9.068;2023-04-01T16:03:24;7.00;99.90
11617;DHT22;5864;52.998;9.068;2023-04-01T16:06:47;7.10;99.90
11617;DHT22;5864;52.998;9.068;2023-04-01T16:10:04;7.00;99.90
11617;DHT22;5864;52.998;9.068;2023-04-01T16:13:02;9.40;99.90
11617;DHT22;5864;52.998;9.068;2023-04-01T16:15:59;8.30;99.90
11617;DHT22;5864;52.998;9.068;2023-04-01T16:18:59;7.00;99.90
11617;DHT22;5864;52.998;9.068;2023-04-01T16:21:51;6.90;99.90
11617;DHT22;5864;52.998;9.068;2023-04-01T16:24:41;6.90;99.90
11617;DHT22;5864;52.998;9.068;2023-04-01T16:27:33;6.80;99.90
11617;DHT22;5864;52.998;9.068;2023-04-01T16:30:32;6.80;99.90
11617;DHT22;5864;52.998;9.068;2023-04-01T16:33:22;9.10;99.90
11617;DHT22;5864;52.998;9.068;2023-04-01T16:36:19;9.30;99.90
11617;DHT22;5864;52.998;9.068;2023-04-01T16:39:17;6.60;99.90
11617;DHT22;5864;52.998;9.068;2023-04-01T16:42:31;8.20;99.90
11617;DHT22;5864;52.998;9.068;2023-04-01T16:45:30;7.40;99.90
11617;DHT22;5864;52.998;9.068;2023-04-01T16:48:21;6.50;99.90
11617;DHT22;5864;52.998;9.068;2023-04-01T16:51:13;6.80;99.90
11617;DHT22;5864;52.998;9.068;2023-04-01T16:54:05;8.50;99.90
11617;DHT22;5864;52.998;9.068;2023-04-01T16:56:55;8.30;99.90
11617;DHT22;5864;52.998;9.068;2023-04-01T16:59:47;6.40;99.90
11617;DHT22;5864;52.998;9.068;2023-04-01T17:02:37;6.40;99.90
11617;DHT22;5864;52.998;9.068;2023-04-01T17:05:39;7.10;99.90
11617;DHT22;5864;52.998;9.068;2023-04-01T17:08:50;6.30;99.90
11617;DHT22;5864;52.998;9.068;2023-04-01T17:11:44;6.30;99.90
11617;DHT22;5864;52.998;9.068;2023-04-01T17:14:38;6.10;99.90
11617;DHT22;5864;52.998;9.068;2023-04-01T17:17:37;8.10;99.90
11617;DHT22;5864;52.998;9.068;2023-04-01T17:20:32;6.50;99.90
11617;DHT22;5864;52.998;9.068;2023-04-01T17:23:28;6.40;99.90
11617;DHT22;5864;52.998;9.068;2023-04-01T17:26:26;9.40;99.90
11617;DHT22;5864;52.998;9.068;2023-04-01T17:29:19;6.00;99.90
11617;DHT22;5864;52.998;9.068;2023-04-01T17:32:13;8.90;99.90
11617;DHT22;5864;52.998;9.068;2023-04-01T17:35:03;7.50;99.90
11617;DHT22;5864;52.998;9.068;2023-04-01T17:38:01;9.20;99.90
11617;DHT22;5864;52.998;9.068;2023-04-01T17:40:59;7.70;99.90
11617;DHT22;5864;52.998;9.068;2023-04-01T17:43:52;5.90;99.90
11617;DHT22;5864;52.998;9.068;2023-04-01T17:46:54;7.30;99.90
11617;DHT22;5864;52.998;9.068;2023-04-01T17:49:49;9.20;99.90
11617;DHT22;5864;52.998;9.068;2023-04-01T17:52:42;6.30;99.90
11617;DHT22;5864;52.998;9.068;2023-04-01T17:55:43;5.80;99.90
11617;DHT22;5864;52.998;9.068;2023-04-01T17:58:34;5.80;99.90
11617;DHT22;5864;52.998;9.068;2023-04-01T18:01:34;8.60;99.90
11617;DHT22;5864;52.998;9.068;2023-04-01T18:04:46;6.50;99.90
11617;DHT22;5864;52.998;9.068;2023-04-01T18:11:04;5.80;99.90
11617;DHT22;5864;52.998;9.068;2023-04-01T18:14:02;5.70;99.90
11617;DHT22;5864;52.998;9.068;2023-04-01T18:17:08;5.70;99.90
11617;DHT22;5864;52.998;9.068;2023-04-01T18:20:06;5.70;99.90
11617;DHT22;5864;52.998;9.068;2023-04-01T18:22:59;5.60;99.90
11617;DHT22;5864;52.998;9.068;2023-04-01T18:25:48;5.80;99.90
11617;DHT22;5864;52.998;9.068;2023-04-01T18:28:36;6.40;99.90
11617;DHT22;5864;52.998;9.068;2023-04-01T18:31:25;5.70;99.90
11617;DHT22;5864;52.998;9.068;2023-04-01T18:34:17;5.60;99.90
11617;DHT22;5864;52.998;9.068;2023-04-01T18:37:18;5.50;99.90
11617;DHT22;5864;52.998;9.068;2023-04-01T18:40:17;5.50;99.90
11617;DHT22;5864;52.998;9.068;2023-04-01T18:43:15;6.50;99.90
11617;DHT22;5864;52.998;9.068;2023-04-01T18:46:08;7.30;99.90
11617;DHT22;5864;52.998;9.068;2023-04-01T18:49:06;5.20;99.90
11617;DHT22;5864;52.998;9.068;2023-04-01T18:51:57;5.20;99.90
11617;DHT22;5864;52.998;9.068;2023-04-01T18:54:47;5.20;99.90
11617;DHT22;5864;52.998;9.068;2023-04-01T18:57:40;7.40;99.90
11617;DHT22;5864;52.998;9.068;2023-04-01T19:00:34;5.90;99.90
11617;DHT22;5864;52.998;9.068;2023-04-01T19:03:27;5.20;99.90
11617;DHT22;5864;52.998;9.068;2023-04-01T19:06:21;6.10;99.90
11617;DHT22;5864;52.998;9.068;2023-04-01T19:09:24;5.20;99.90
11617;DHT22;5864;52.998;9.068;2023-04-01T19:12:24;5.10;99.90
11617;DHT22;5864;52.998;9.068;2023-04-01T19:15:27;6.40;99.90
11617;DHT22;5864;52.998;9.068;2023-04-01T19:18:39;5.10;99.90
11617;DHT22;5864;52.998;9.068;2023-04-01T19:21:33;5.10;99.90
11617;DHT22;5864;52.998;9.068;2023-04-01T19:24:53;5.10;99.90
11617;DHT22;5864;52.998;9.068;2023-04-01T19:27:49;5.00;99.90
11617;DHT22;5864;52.998;9.068;2023-04-01T19:30:53;5.10;99.90
11617;DHT22;5864;52.998;9.068;2023-04-01T19:33:48;5.00;99.90
11617;DHT22;5864;52.998;9.068;2023-04-01T19:36:44;4.90;99.90
11617;DHT22;5864;52.998;9.068;2023-04-01T19:39:45;4.90;99.90
11617;DHT22;5864;52.998;9.068;2023-04-01T19:42:37;5.40;99.90
11617;DHT22;5864;52.998;9.068;2023-04-01T19:45:34;6.80;99.90
11617;DHT22;5864;52.998;9.068;2023-04-01T19:48:40;7.20;99.90
11617;DHT22;5864;52.998;9.068;2023-04-01T19:51:31;4.90;99.90
11617;DHT22;5864;52.998;9.068;2023-04-01T19:54:27;7.40;99.90
11617;DHT22;5864;52.998;9.068;2023-04-01T19:57:24;7.40;99.90
11617;DHT22;5864;52.998;9.068;2023-04-01T20:00:18;4.70;99.90
11617;DHT22;5864;52.998;9.068;2023-04-01T20:03:15;4.70;99.90
11617;DHT22;5864;52.998;9.068;2023-04-01T20:06:18;4.70;99.90
11617;DHT22;5864;52.998;9.068;2023-04-01T20:09:15;4.60;99.90